sensor_id;sensor_type;location;lat;lon;timestamp;P1;durP1;ratioP1;P2;durP2;ratioP2
43682;SDS011;29285;52.128;21.060;2024-02-16T00:02:59;18.00;;;11.30;;
43682;SDS011;29285;52.128;21.060;2024-02-16T00:08:01;21.80;;;11.90;;
43682;SDS011;29285;52.128;21.060;2024-02-16T00:13:03;17.60;;;10.70;;
43682;SDS011;29285;52.128;21.060;2024-02-16T00:18:05;16.50;;;10.50;;
43682;SDS011;29285;52.128;21.060;2024-02-16T00:23:06;15.30;;;9.90;;
43682;SDS011;29285;52.128;21.060;2024-02-16T00:28:08;16.60;;;10.20;;
43682;SDS011;29285;52.128;21.060;2024-02-16T00:33:09;13.60;;;8.40;;
43682;SDS011;29285;52.128;21.060;2024-02-16T00:38:10;16.30;;;9.30;;
43682;SDS011;29285;52.128;21.060;2024-02-16T00:43:12;15.50;;;9.80;;
43682;SDS011;29285;52.128;21.060;2024-02-16T00:48:13;15.40;;;9.60;;
43682;SDS011;29285;52.128;21.060;2024-02-16T00:53:15;13.40;;;9.30;;
43682;SDS011;29285;52.128;21.060;2024-02-16T00:58:16;17.50;;;9.90;;
43682;SDS011;29285;52.128;21.060;2024-02-16T01:03:17;14.40;;;9.10;;
43682;SDS011;29285;52.128;21.060;2024-02-16T01:08:18;11.90;;;8.00;;
43682;SDS011;29285;52.128;21.060;2024-02-16T01:13:19;13.20;;;8.10;;
43682;SDS011;29285;52.128;21.060;2024-02-16T01:18:20;14.60;;;9.20;;
43682;SDS011;29285;52.128;21.060;2024-02-16T01:23:21;14.20;;;8.70;;
43682;SDS011;29285;52.128;21.060;2024-02-16T01:28:22;16.00;;;9.50;;
43682;SDS011;29285;52.128;21.060;2024-02-16T01:33:24;11.00;;;7.60;;
43682;SDS011;29285;52.128;21.060;2024-02-16T01:38:25;11.50;;;7.90;;
43682;SDS011;29285;52.128;21.060;2024-02-16T01:43:29;11.50;;;7.80;;
43682;SDS011;29285;52.128;21.060;2024-02-16T01:48:30;12.20;;;7.70;;
43682;SDS011;29285;52.128;21.060;2024-02-16T01:53:31;10.80;;;7.20;;
43682;SDS011;29285;52.128;21.060;2024-02-16T01:58:33;12.60;;;6.90;;
43682;SDS011;29285;52.128;21.060;2024-02-16T02:03:35;12.50;;;6.70;;
43682;SDS011;29285;52.128;21.060;2024-02-16T02:08:36;9.80;;;6.20;;
43682;SDS011;29285;52.128;21.060;2024-02-16T02:13:37;12.90;;;7.70;;
43682;SDS011;29285;52.128;21.060;2024-02-16T02:18:38;10.60;;;7.50;;
43682;SDS011;29285;52.128;21.060;2024-02-16T02:23:40;9.50;;;5.70;;
43682;SDS011;29285;52.128;21.060;2024-02-16T02:28:42;11.00;;;7.00;;
43682;SDS011;29285;52.128;21.060;2024-02-16T02:33:43;8.30;;;6.10;;
43682;SDS011;29285;52.128;21.060;2024-02-16T02:38:44;10.70;;;6.80;;
43682;SDS011;29285;52.128;21.060;2024-02-16T02:43:45;10.20;;;6.90;;
43682;SDS011;29285;52.128;21.060;2024-02-16T02:48:46;10.00;;;5.80;;
43682;SDS011;29285;52.128;21.060;2024-02-16T02:53:47;10.80;;;6.90;;
43682;SDS011;29285;52.128;21.060;2024-02-16T02:58:48;12.30;;;6.20;;
43682;SDS011;29285;52.128;21.060;2024-02-16T03:03:49;9.40;;;5.70;;
43682;SDS011;29285;52.128;21.060;2024-02-16T03:08:50;11.90;;;6.20;;
43682;SDS011;29285;52.128;21.060;2024-02-16T03:13:51;11.90;;;6.30;;
43682;SDS011;29285;52.128;21.060;2024-02-16T03:18:53;12.50;;;6.70;;
43682;SDS011;29285;52.128;21.060;2024-02-16T03:23:55;10.40;;;6.10;;
43682;SDS011;29285;52.128;21.060;2024-02-16T03:28:56;12.60;;;6.70;;
43682;SDS011;29285;52.128;21.060;2024-02-16T03:33:57;8.50;;;6.00;;
43682;SDS011;29285;52.128;21.060;2024-02-16T03:38:58;8.10;;;5.40;;
43682;SDS011;29285;52.128;21.060;2024-02-16T03:43:59;10.80;;;6.10;;
43682;SDS011;29285;52.128;21.060;2024-02-16T03:49:00;14.10;;;7.80;;
43682;SDS011;29285;52.128;21.060;2024-02-16T03:54:02;12.00;;;6.80;;
43682;SDS011;29285;52.128;21.060;2024-02-16T03:59:04;8.80;;;6.60;;
43682;SDS011;29285;52.128;21.060;2024-02-16T04:04:06;12.10;;;7.80;;
43682;SDS011;29285;52.128;21.060;2024-02-16T04:09:07;12.00;;;7.40;;
43682;SDS011;29285;52.128;21.060;2024-02-16T04:14:08;11.60;;;6.60;;
43682;SDS011;29285;52.128;21.060;2024-02-16T04:19:10;12.70;;;7.60;;
43682;SDS011;29285;52.128;21.060;2024-02-16T04:24:11;11.00;;;6.70;;
43682;SDS011;29285;52.128;21.060;2024-02-16T04:29:13;13.50;;;6.70;;
43682;SDS011;29285;52.128;21.060;2024-02-16T04:34:14;11.80;;;6.80;;
43682;SDS011;29285;52.128;21.060;2024-02-16T04:39:15;10.00;;;6.90;;
43682;SDS011;29285;52.128;21.060;2024-02-16T04:44:18;10.40;;;6.80;;
43682;SDS011;29285;52.128;21.060;2024-02-16T04:49:19;10.60;;;7.00;;
43682;SDS011;29285;52.128;21.060;2024-02-16T04:54:20;9.90;;;6.70;;
43682;SDS011;29285;52.128;21.060;2024-02-16T04:59:21;12.30;;;6.90;;
43682;SDS011;29285;52.128;21.060;2024-02-16T05:04:22;11.30;;;6.70;;
43682;SDS011;29285;52.128;21.060;2024-02-16T05:09:23;13.80;;;7.70;;
43682;SDS011;29285;52.128;21.060;2024-02-16T05:14:26;11.90;;;6.80;;
43682;SDS011;29285;52.128;21.060;2024-02-16T05:19:31;10.60;;;6.70;;
43682;SDS011;29285;52.128;21.060;2024-02-16T05:24:33;11.20;;;6.70;;
43682;SDS011;29285;52.128;21.060;2024-02-16T05:29:34;13.70;;;7.70;;
43682;SDS011;29285;52.128;21.060;2024-02-16T05:34:35;11.00;;;7.30;;
43682;SDS011;29285;52.128;21.060;2024-02-16T05:39:39;12.80;;;7.20;;
43682;SDS011;29285;52.128;21.060;2024-02-16T05:45:03;13.20;;;7.50;;
43682;SDS011;29285;52.128;21.060;2024-02-16T05:50:05;9.90;;;7.50;;
43682;SDS011;29285;52.128;21.060;2024-02-16T05:55:08;11.30;;;8.20;;
43682;SDS011;29285;52.128;21.060;2024-02-16T06:00:10;13.20;;;7.90;;
43682;SDS011;29285;52.128;21.060;2024-02-16T06:05:11;12.50;;;7.50;;
43682;SDS011;29285;52.128;21.060;2024-02-16T06:10:12;14.30;;;9.00;;
43682;SDS011;29285;52.128;21.060;2024-02-16T06:15:13;11.50;;;8.00;;
43682;SDS011;29285;52.128;21.060;2024-02-16T06:20:15;11.50;;;7.50;;
43682;SDS011;29285;52.128;21.060;2024-02-16T06:25:17;14.10;;;8.20;;
43682;SDS011;29285;52.128;21.060;2024-02-16T06:30:18;18.00;;;9.10;;
43682;SDS011;29285;52.128;21.060;2024-02-16T06:35:19;13.20;;;8.20;;
43682;SDS011;29285;52.128;21.060;2024-02-16T06:40:20;12.30;;;7.50;;
43682;SDS011;29285;52.128;21.060;2024-02-16T06:45:21;16.80;;;9.00;;
43682;SDS011;29285;52.128;21.060;2024-02-16T06:50:23;15.30;;;8.50;;
43682;SDS011;29285;52.128;21.060;2024-02-16T06:55:24;15.90;;;9.70;;
43682;SDS011;29285;52.128;21.060;2024-02-16T07:00:25;14.60;;;8.90;;
43682;SDS011;29285;52.128;21.060;2024-02-16T13:45:29;10.20;;;8.20;;
43682;SDS011;29285;52.128;21.060;2024-02-16T13:50:48;11.20;;;8.90;;
43682;SDS011;29285;52.128;21.060;2024-02-16T13:55:50;13.40;;;9.00;;
43682;SDS011;29285;52.128;21.060;2024-02-16T14:00:51;12.00;;;9.10;;
43682;SDS011;29285;52.128;21.060;2024-02-16T14:05:52;9.80;;;7.80;;
43682;SDS011;29285;52.128;21.060;2024-02-16T14:10:53;11.50;;;8.60;;
43682;SDS011;29285;52.128;21.060;2024-02-16T14:15:55;11.00;;;8.70;;
43682;SDS011;29285;52.128;21.060;2024-02-16T14:20:57;10.10;;;8.70;;
43682;SDS011;29285;52.128;21.060;2024-02-16T14:25:58;11.50;;;8.70;;
43682;SDS011;29285;52.128;21.060;2024-02-16T14:31:00;9.60;;;8.50;;
43682;SDS011;29285;52.128;21.060;2024-02-16T14:36:04;12.40;;;9.00;;
43682;SDS011;29285;52.128;21.060;2024-02-16T14:41:05;9.90;;;8.20;;
43682;SDS011;29285;52.128;21.060;2024-02-16T14:46:06;9.40;;;7.90;;
43682;SDS011;29285;52.128;21.060;2024-02-16T14:51:08;9.60;;;8.00;;
43682;SDS011;29285;52.128;21.060;2024-02-16T14:56:09;9.90;;;6.80;;
43682;SDS011;29285;52.128;21.060;2024-02-16T15:01:10;8.40;;;7.50;;
43682;SDS011;29285;52.128;21.060;2024-02-16T15:06:12;10.70;;;7.20;;
43682;SDS011;29285;52.128;21.060;2024-02-16T15:11:13;13.20;;;7.20;;
43682;SDS011;29285;52.128;21.060;2024-02-16T15:16:14;6.70;;;5.40;;
43682;SDS011;29285;52.128;21.060;2024-02-16T15:21:15;8.70;;;6.40;;
43682;SDS011;29285;52.128;21.060;2024-02-16T15:26:16;7.20;;;5.00;;
43682;SDS011;29285;52.128;21.060;2024-02-16T15:31:17;10.00;;;6.60;;
43682;SDS011;29285;52.128;21.060;2024-02-16T15:36:18;10.70;;;6.40;;
43682;SDS011;29285;52.128;21.060;2024-02-16T15:41:19;9.00;;;5.50;;
43682;SDS011;29285;52.128;21.060;2024-02-16T15:46:20;6.70;;;5.80;;
43682;SDS011;29285;52.128;21.060;2024-02-16T15:51:21;8.90;;;6.50;;
43682;SDS011;29285;52.128;21.060;2024-02-16T15:56:22;8.30;;;5.30;;
43682;SDS011;29285;52.128;21.060;2024-02-16T16:01:25;9.30;;;6.30;;
43682;SDS011;29285;52.128;21.060;2024-02-16T16:06:27;9.90;;;6.40;;
43682;SDS011;29285;52.128;21.060;2024-02-16T16:11:28;11.50;;;6.00;;
43682;SDS011;29285;52.128;21.060;2024-02-16T16:16:29;9.50;;;6.90;;
43682;SDS011;29285;52.128;21.060;2024-02-16T16:21:30;7.40;;;5.50;;
43682;SDS011;29285;52.128;21.060;2024-02-16T16:26:31;8.90;;;6.20;;
43682;SDS011;29285;52.128;21.060;2024-02-16T16:31:32;10.40;;;6.60;;
43682;SDS011;29285;52.128;21.060;2024-02-16T16:36:34;13.70;;;7.40;;
43682;SDS011;29285;52.128;21.060;2024-02-16T16:41:35;10.80;;;6.90;;
43682;SDS011;29285;52.128;21.060;2024-02-16T16:46:36;10.30;;;6.90;;
43682;SDS011;29285;52.128;21.060;2024-02-16T16:58:04;9.70;;;6.60;;
43682;SDS011;29285;52.128;21.060;2024-02-16T17:03:06;11.20;;;7.20;;
43682;SDS011;29285;52.128;21.060;2024-02-16T17:08:08;9.70;;;7.10;;
43682;SDS011;29285;52.128;21.060;2024-02-16T17:13:09;11.00;;;7.10;;
43682;SDS011;29285;52.128;21.060;2024-02-16T17:18:10;11.70;;;7.50;;
43682;SDS011;29285;52.128;21.060;2024-02-16T17:23:11;13.20;;;9.00;;
43682;SDS011;29285;52.128;21.060;2024-02-16T17:28:12;13.20;;;8.30;;
43682;SDS011;29285;52.128;21.060;2024-02-16T17:33:13;11.20;;;8.50;;
43682;SDS011;29285;52.128;21.060;2024-02-16T17:38:14;16.00;;;9.80;;
43682;SDS011;29285;52.128;21.060;2024-02-16T17:43:15;12.40;;;8.60;;
43682;SDS011;29285;52.128;21.060;2024-02-16T17:48:16;13.60;;;8.30;;
43682;SDS011;29285;52.128;21.060;2024-02-16T17:53:17;15.10;;;9.90;;
43682;SDS011;29285;52.128;21.060;2024-02-16T17:58:18;16.40;;;10.10;;
43682;SDS011;29285;52.128;21.060;2024-02-16T18:03:19;14.90;;;8.80;;
43682;SDS011;29285;52.128;21.060;2024-02-16T18:08:20;15.10;;;9.50;;
43682;SDS011;29285;52.128;21.060;2024-02-16T18:13:21;14.80;;;9.30;;
43682;SDS011;29285;52.128;21.060;2024-02-16T18:18:23;14.70;;;9.70;;
43682;SDS011;29285;52.128;21.060;2024-02-16T18:23:24;15.40;;;10.20;;
43682;SDS011;29285;52.128;21.060;2024-02-16T18:28:25;17.00;;;10.50;;
43682;SDS011;29285;52.128;21.060;2024-02-16T18:33:26;14.80;;;9.20;;
43682;SDS011;29285;52.128;21.060;2024-02-16T18:38:29;16.30;;;12.10;;
43682;SDS011;29285;52.128;21.060;2024-02-16T18:43:31;16.40;;;10.40;;
43682;SDS011;29285;52.128;21.060;2024-02-16T18:48:32;20.30;;;11.00;;
43682;SDS011;29285;52.128;21.060;2024-02-16T18:53:34;15.90;;;10.50;;
43682;SDS011;29285;52.128;21.060;2024-02-16T18:58:35;22.10;;;11.00;;
43682;SDS011;29285;52.128;21.060;2024-02-16T19:03:36;15.50;;;10.60;;
43682;SDS011;29285;52.128;21.060;2024-02-16T19:08:37;17.90;;;11.30;;
43682;SDS011;29285;52.128;21.060;2024-02-16T19:13:38;21.20;;;11.40;;
43682;SDS011;29285;52.128;21.060;2024-02-16T19:18:40;18.70;;;10.90;;
43682;SDS011;29285;52.128;21.060;2024-02-16T19:23:41;17.10;;;11.90;;
43682;SDS011;29285;52.128;21.060;2024-02-16T19:28:42;17.40;;;11.90;;
43682;SDS011;29285;52.128;21.060;2024-02-16T19:33:44;16.20;;;11.60;;
43682;SDS011;29285;52.128;21.060;2024-02-16T19:38:45;20.00;;;12.70;;
43682;SDS011;29285;52.128;21.060;2024-02-16T19:43:46;19.70;;;12.40;;
43682;SDS011;29285;52.128;21.060;2024-02-16T19:48:48;20.20;;;12.60;;
43682;SDS011;29285;52.128;21.060;2024-02-16T19:53:49;17.30;;;11.30;;
43682;SDS011;29285;52.128;21.060;2024-02-16T19:58:50;21.40;;;12.80;;
43682;SDS011;29285;52.128;21.060;2024-02-16T20:03:51;18.70;;;11.50;;
43682;SDS011;29285;52.128;21.060;2024-02-16T20:08:52;17.60;;;12.50;;
43682;SDS011;29285;52.128;21.060;2024-02-16T20:13:53;17.60;;;12.40;;
43682;SDS011;29285;52.128;21.060;2024-02-16T20:18:55;18.40;;;12.00;;
43682;SDS011;29285;52.128;21.060;2024-02-16T20:23:57;17.90;;;12.20;;
43682;SDS011;29285;52.128;21.060;2024-02-16T20:29:01;17.20;;;11.10;;
43682;SDS011;29285;52.128;21.060;2024-02-16T20:34:03;22.50;;;14.30;;
43682;SDS011;29285;52.128;21.060;2024-02-16T20:39:05;18.40;;;12.60;;
43682;SDS011;29285;52.128;21.060;2024-02-16T20:44:05;21.10;;;12.90;;
43682;SDS011;29285;52.128;21.060;2024-02-16T20:49:06;20.30;;;12.40;;
43682;SDS011;29285;52.128;21.060;2024-02-16T20:54:07;20.00;;;13.10;;
43682;SDS011;29285;52.128;21.060;2024-02-16T20:59:08;20.10;;;12.40;;
43682;SDS011;29285;52.128;21.060;2024-02-16T21:04:09;20.90;;;13.90;;
43682;SDS011;29285;52.128;21.060;2024-02-16T21:09:10;17.70;;;12.80;;
43682;SDS011;29285;52.128;21.060;2024-02-16T21:14:12;22.20;;;12.80;;
43682;SDS011;29285;52.128;21.060;2024-02-16T21:19:13;21.60;;;13.20;;
43682;SDS011;29285;52.128;21.060;2024-02-16T21:24:14;19.80;;;12.00;;
43682;SDS011;29285;52.128;21.060;2024-02-16T21:29:21;19.50;;;13.20;;
43682;SDS011;29285;52.128;21.060;2024-02-16T21:34:22;20.20;;;13.30;;
43682;SDS011;29285;52.128;21.060;2024-02-16T21:39:23;19.40;;;12.70;;
43682;SDS011;29285;52.128;21.060;2024-02-16T21:44:25;21.20;;;13.20;;
43682;SDS011;29285;52.128;21.060;2024-02-16T21:49:26;20.20;;;12.60;;
43682;SDS011;29285;52.128;21.060;2024-02-16T21:54:28;20.00;;;13.80;;
43682;SDS011;29285;52.128;21.060;2024-02-16T21:59:29;19.50;;;14.50;;
43682;SDS011;29285;52.128;21.060;2024-02-16T22:04:30;20.70;;;12.90;;
43682;SDS011;29285;52.128;21.060;2024-02-16T22:09:31;23.30;;;14.90;;
43682;SDS011;29285;52.128;21.060;2024-02-16T22:14:33;23.10;;;14.90;;
43682;SDS011;29285;52.128;21.060;2024-02-16T22:19:34;22.00;;;13.70;;
43682;SDS011;29285;52.128;21.060;2024-02-16T22:24:35;18.20;;;12.30;;
43682;SDS011;29285;52.128;21.060;2024-02-16T22:29:36;22.90;;;14.40;;
43682;SDS011;29285;52.128;21.060;2024-02-16T22:34:37;23.50;;;13.70;;
43682;SDS011;29285;52.128;21.060;2024-02-16T22:39:38;23.40;;;15.00;;
43682;SDS011;29285;52.128;21.060;2024-02-16T22:44:39;19.80;;;13.50;;
43682;SDS011;29285;52.128;21.060;2024-02-16T22:49:40;21.70;;;12.80;;
43682;SDS011;29285;52.128;21.060;2024-02-16T22:54:41;26.50;;;15.00;;
43682;SDS011;29285;52.128;21.060;2024-02-16T22:59:42;24.20;;;12.90;;
43682;SDS011;29285;52.128;21.060;2024-02-16T23:04:43;19.90;;;13.60;;
43682;SDS011;29285;52.128;21.060;2024-02-16T23:09:47;18.80;;;12.40;;
43682;SDS011;29285;52.128;21.060;2024-02-16T23:19:49;22.10;;;12.40;;
43682;SDS011;29285;52.128;21.060;2024-02-16T23:24:51;24.10;;;14.50;;
43682;SDS011;29285;52.128;21.060;2024-02-16T23:29:52;23.30;;;13.00;;
43682;SDS011;29285;52.128;21.060;2024-02-16T23:34:53;20.20;;;12.90;;
43682;SDS011;29285;52.128;21.060;2024-02-16T23:39:54;20.00;;;13.10;;
43682;SDS011;29285;52.128;21.060;2024-02-16T23:44:55;21.80;;;14.30;;
43682;SDS011;29285;52.128;21.060;2024-02-16T23:49:56;18.70;;;12.90;;
43682;SDS011;29285;52.128;21.060;2024-02-16T23:54:57;20.30;;;13.90;;
43682;SDS011;29285;52.128;21.060;2024-02-16T23:59:59;22.20;;;13.00;;
